Time;durP1;ratioP1;P1;durP2;ratioP2;P2;SDS_P1;SDS_P2;PMS_P1;PMS_P2;Temp;Humidity;BMP_temperature;BMP_pressure;BME280_temperature;BME280_humidity;BME280_pressure;Samples;Min_cycle;Max_cycle;Signal;HPM_P1;HPM_P2
2024/04/17 00:01:23;;;;;;;3.47;1.50;;;;;;;3.35;100.00;100976.84;5362730;26;21192;-86
2024/04/17 00:04:19;;;;;;;1.70;1.60;;;;;;;3.34;100.00;100990.97;5351629;26;20055;-86
2024/04/17 00:07:03;;;;;;;3.23;2.07;;;;;;;3.32;100.00;100985.03;5353274;26;20009;-86
2024/04/17 00:09:41;;;;;;;2.67;1.95;;;;;;;3.20;100.00;100982.75;5361007;26;20623;-87
2024/04/17 00:12:38;;;;;;;2.88;1.92;;;;;;;3.36;100.00;100985.56;5364988;26;20002;-87
2024/04/17 00:15:09;;;;;;;4.55;2.35;;;;;;;3.38;100.00;100973.88;5360428;26;20380;-87
2024/04/17 00:17:44;;;;;;;3.78;2.30;;;;;;;3.51;100.00;100977.97;5357185;26;20030;-87
2024/04/17 00:20:09;;;;;;;2.00;1.80;;;;;;;3.57;100.00;100980.00;5358343;26;19999;-88
2024/04/17 00:22:35;;;;;;;2.80;1.80;;;;;;;3.47;100.00;100977.41;5358536;26;20003;-87
2024/04/17 00:25:00;;;;;;;4.13;2.28;;;;;;;3.48;100.00;100970.38;5352804;26;20021;-87
2024/04/17 00:27:26;;;;;;;6.10;2.38;;;;;;;3.54;100.00;100978.47;5356263;26;20075;-87
2024/04/17 00:29:51;;;;;;;4.60;1.67;;;;;;;3.58;100.00;100989.53;5351449;26;20015;-87
2024/04/17 00:32:16;;;;;;;5.93;2.63;;;;;;;3.57;100.00;100980.00;5377826;26;20017;-87
2024/04/17 00:34:42;;;;;;;2.20;2.00;;;;;;;3.53;100.00;100984.72;5351411;26;19999;-87
2024/04/17 00:37:07;;;;;;;6.88;2.50;;;;;;;3.45;100.00;100978.56;5349534;26;20002;-86
2024/04/17 00:39:33;;;;;;;14.60;2.33;;;;;;;3.33;100.00;100965.63;5342216;26;20006;-87
2024/04/17 00:41:58;;;;;;;3.38;2.22;;;;;;;3.27;100.00;100954.88;5362195;26;20117;-87
2024/04/17 00:44:23;;;;;;;4.85;2.30;;;;;;;3.36;100.00;100975.03;5360127;26;20054;-86
2024/04/17 00:46:49;;;;;;;3.30;2.20;;;;;;;3.32;100.00;100971.88;5362396;26;20690;-85
2024/04/17 00:49:15;;;;;;;8.32;2.17;;;;;;;3.11;100.00;100945.84;5369165;25;19999;-87
2024/04/17 00:51:41;;;;;;;4.38;1.90;;;;;;;3.20;100.00;100972.22;5395654;25;20006;-87
2024/04/17 00:54:07;;;;;;;3.55;2.22;;;;;;;3.01;100.00;100966.13;5419968;25;20009;-86
2024/04/17 00:56:34;;;;;;;6.07;2.38;;;;;;;3.00;100.00;100982.88;5433186;25;21958;-86
2024/04/17 00:59:00;;;;;;;5.93;2.30;;;;;;;2.97;100.00;100956.91;5398831;25;20012;-86
2024/04/17 01:01:26;;;;;;;4.53;2.33;;;;;;;3.02;100.00;100969.59;5406002;26;20023;-86
2024/04/17 01:03:51;;;;;;;2.28;1.92;;;;;;;3.02;100.00;100980.09;5409093;25;22776;-87
2024/04/17 01:06:17;;;;;;;3.20;1.90;;;;;;;2.92;100.00;100968.81;5457672;25;20006;-88
2024/04/17 01:08:42;;;;;;;2.40;1.83;;;;;;;3.07;100.00;100977.88;5415919;25;20002;-85
2024/04/17 01:11:08;;;;;;;4.57;2.05;;;;;;;2.97;100.00;100970.03;5413936;26;20777;-85
2024/04/17 01:13:33;;;;;;;2.50;2.13;;;;;;;2.97;100.00;100958.72;5402548;25;20506;-86
2024/04/17 01:15:58;;;;;;;4.47;2.47;;;;;;;3.01;100.00;100973.19;5407066;26;20025;-88
2024/04/17 01:18:24;;;;;;;6.10;2.20;;;;;;;2.91;100.00;100956.66;5409709;25;22808;-87
2024/04/17 01:20:50;;;;;;;4.30;2.22;;;;;;;3.06;100.00;100966.53;5407330;26;20340;-84
2024/04/17 01:23:15;;;;;;;3.50;2.03;;;;;;;3.05;100.00;100948.28;5398042;25;20633;-86
2024/04/17 01:25:40;;;;;;;3.90;2.05;;;;;;;3.10;100.00;100967.03;5412427;25;20127;-87
2024/04/17 01:28:07;;;;;;;7.35;2.40;;;;;;;3.15;100.00;100954.28;5447843;25;20018;-86
2024/04/17 01:30:32;;;;;;;1.80;1.70;;;;;;;3.24;100.00;100963.91;5417189;25;20005;-86
2024/04/17 01:32:57;;;;;;;2.00;1.75;;;;;;;3.43;100.00;100956.84;5425692;25;20103;-86
2024/04/17 01:35:23;;;;;;;1.73;1.63;;;;;;;3.43;100.00;100960.28;5426898;25;20007;-89
2024/04/17 01:37:48;;;;;;;6.10;2.13;;;;;;;3.45;100.00;100965.41;5439415;25;20802;-86
2024/04/17 01:40:14;;;;;;;3.83;2.50;;;;;;;3.46;100.00;100967.06;5428390;25;20023;-87
2024/04/17 01:42:39;;;;;;;4.20;2.33;;;;;;;3.44;100.00;100969.00;5433585;25;20025;-87
2024/04/17 01:45:05;;;;;;;3.08;2.10;;;;;;;3.45;100.00;100966.22;5431302;25;20042;-85
2024/04/17 01:47:32;;;;;;;1.80;1.67;;;;;;;3.35;100.00;100961.03;5426170;25;20009;-88
2024/04/17 01:49:57;;;;;;;3.00;2.30;;;;;;;3.43;100.00;100968.19;5444995;25;20022;-86
2024/04/17 01:52:23;;;;;;;2.65;1.88;;;;;;;3.38;100.00;100954.66;5419227;25;20540;-87
2024/04/17 01:54:48;;;;;;;3.67;2.10;;;;;;;3.39;100.00;100945.81;5424742;25;21149;-87
2024/04/17 01:57:14;;;;;;;4.15;2.15;;;;;;;3.42;100.00;100950.75;5434568;25;20082;-86
2024/04/17 01:59:39;;;;;;;2.15;1.95;;;;;;;3.63;100.00;100951.25;5422828;25;20310;-86
2024/04/17 02:02:08;;;;;;;4.63;2.22;;;;;;;3.71;100.00;100950.47;5415046;25;20005;-86
2024/04/17 02:04:33;;;;;;;2.50;1.95;;;;;;;3.76;100.00;100958.75;5436755;25;19997;-86
2024/04/17 02:06:58;;;;;;;3.80;2.13;;;;;;;3.82;100.00;100952.91;5430007;25;20031;-87
2024/04/17 02:09:24;;;;;;;3.63;2.03;;;;;;;3.82;100.00;100952.91;5417027;25;20087;-86
2024/04/17 02:11:49;;;;;;;8.35;2.05;;;;;;;3.86;100.00;100948.13;5431450;25;20843;-87
2024/04/17 02:14:15;;;;;;;6.00;2.03;;;;;;;4.02;100.00;100957.94;5450375;25;20017;-87
2024/04/17 02:16:40;;;;;;;6.93;2.47;;;;;;;4.03;100.00;100954.34;5429763;25;20053;-87
2024/04/17 02:19:05;;;;;;;3.90;1.77;;;;;;;4.08;100.00;100965.22;5422488;25;19998;-87
2024/04/17 02:21:31;;;;;;;2.97;2.10;;;;;;;4.06;100.00;100951.38;5423260;25;22438;-86
2024/04/17 02:23:56;;;;;;;4.68;2.30;;;;;;;4.16;100.00;100954.72;5423356;25;20017;-87
2024/04/17 02:26:21;;;;;;;2.88;2.30;;;;;;;4.20;100.00;100956.09;5412636;25;20059;-87
2024/04/17 02:28:47;;;;;;;3.03;2.03;;;;;;;4.22;100.00;100954.13;5427066;25;20002;-86
2024/04/17 02:31:12;;;;;;;2.08;1.85;;;;;;;4.26;100.00;100944.94;5434759;25;20070;-86
2024/04/17 02:33:38;;;;;;;2.05;1.85;;;;;;;4.33;100.00;100961.75;5436225;25;20086;-87
2024/04/17 02:36:03;;;;;;;10.40;2.63;;;;;;;4.29;100.00;100943.78;5434790;25;20073;-87
2024/04/17 02:38:31;;;;;;;7.75;2.50;;;;;;;4.44;100.00;100963.31;5430875;25;20013;-86
2024/04/17 02:40:57;;;;;;;6.78;2.30;;;;;;;4.38;100.00;100954.19;5427318;25;20420;-86
2024/04/17 02:43:22;;;;;;;2.00;1.85;;;;;;;4.46;100.00;100962.16;5431332;25;20081;-85
2024/04/17 02:45:47;;;;;;;2.83;1.88;;;;;;;4.46;100.00;100956.06;5447049;25;20712;-87
2024/04/17 02:48:13;;;;;;;8.52;2.33;;;;;;;4.48;100.00;100949.63;5417688;25;20074;-87
2024/04/17 02:50:39;;;;;;;3.75;1.80;;;;;;;4.46;100.00;100941.06;5428981;25;20005;-86
2024/04/17 02:53:05;;;;;;;3.35;1.77;;;;;;;4.59;100.00;100929.25;5438558;25;20870;-87
2024/04/17 02:55:30;;;;;;;7.28;1.90;;;;;;;4.74;100.00;100954.84;5415808;25;20002;-87
2024/04/17 02:57:55;;;;;;;1.65;1.55;;;;;;;4.81;100.00;100949.75;5425899;25;20005;-87
2024/04/17 03:00:21;;;;;;;3.63;2.00;;;;;;;4.91;100.00;100963.63;5419984;25;20005;-87
2024/04/17 03:02:46;;;;;;;2.33;1.60;;;;;;;4.93;100.00;100961.66;5419965;25;22396;-87
2024/04/17 03:05:12;;;;;;;2.47;1.58;;;;;;;4.94;100.00;100958.03;5418460;25;20029;-87
2024/04/17 03:07:37;;;;;;;2.92;1.60;;;;;;;5.06;100.00;100954.13;5429737;25;20588;-88
2024/04/17 03:10:03;;;;;;;1.23;1.20;;;;;;;5.04;100.00;100944.72;5432632;25;20424;-88
2024/04/17 03:12:28;;;;;;;1.90;1.80;;;;;;;5.19;100.00;100958.91;5454628;25;20081;-88
2024/04/17 03:14:54;;;;;;;3.85;1.63;;;;;;;5.15;100.00;100962.88;5440234;25;19998;-88
2024/04/17 03:17:19;;;;;;;2.28;1.58;;;;;;;5.27;100.00;100955.47;5438439;25;20006;-87
2024/04/17 03:19:48;;;;;;;1.75;1.63;;;;;;;5.27;100.00;100958.09;5429152;25;22555;-88
2024/04/17 03:22:13;;;;;;;1.55;1.50;;;;;;;5.30;100.00;100961.25;5417437;25;20594;-87
2024/04/17 03:24:38;;;;;;;7.65;1.77;;;;;;;5.29;100.00;100958.75;5424587;25;20016;-87
2024/04/17 03:27:05;;;;;;;5.40;1.40;;;;;;;5.17;100.00;100960.06;5422014;25;20025;-87
2024/04/17 03:29:30;;;;;;;2.90;1.70;;;;;;;5.28;100.00;100970.28;5414725;25;20017;-88
2024/04/17 03:31:55;;;;;;;1.85;1.60;;;;;;;5.37;100.00;100972.78;5444933;25;20006;-88
2024/04/17 03:34:21;;;;;;;1.50;1.40;;;;;;;5.19;100.00;100955.44;5432032;25;20002;-88
2024/04/17 03:36:46;;;;;;;1.95;1.70;;;;;;;5.25;100.00;100960.09;5430966;25;20935;-87
2024/04/17 03:39:12;;;;;;;3.58;2.10;;;;;;;5.33;100.00;100975.94;5425582;25;20017;-86
2024/04/17 03:41:37;;;;;;;3.42;1.90;;;;;;;5.26;100.00;100977.56;5432441;25;20624;-88
2024/04/17 03:44:03;;;;;;;4.20;2.10;;;;;;;5.35;100.00;100987.13;5444715;25;20005;-87
2024/04/17 03:46:28;;;;;;;3.83;2.08;;;;;;;5.36;100.00;100980.88;5428499;25;20002;-87
2024/04/17 03:48:53;;;;;;;2.42;1.75;;;;;;;5.35;100.00;100989.78;5414271;25;20485;-87
2024/04/17 03:51:19;;;;;;;1.77;1.50;;;;;;;5.33;100.00;100999.69;5424897;25;21434;-88
2024/04/17 03:53:44;;;;;;;3.13;1.85;;;;;;;5.50;100.00;101009.28;5437829;25;20012;-87
2024/04/17 03:56:10;;;;;;;1.63;1.52;;;;;;;5.35;100.00;101001.16;5433371;25;20013;-88
2024/04/17 03:58:36;;;;;;;1.42;1.33;;;;;;;5.31;100.00;100999.03;5443848;25;20102;-87
2024/04/17 04:01:01;;;;;;;1.73;1.10;;;;;;;5.44;100.00;101004.63;5432210;25;20065;-87
2024/04/17 04:03:27;;;;;;;1.65;1.20;;;;;;;5.43;100.00;101008.28;5427453;25;20002;-87
2024/04/17 04:05:52;;;;;;;1.40;1.30;;;;;;;5.16;100.00;100998.81;5444774;25;20929;-87
2024/04/17 04:08:18;;;;;;;0.93;0.93;;;;;;;5.21;100.00;100993.03;5418773;25;20139;-87
2024/04/17 04:10:44;;;;;;;1.30;1.25;;;;;;;5.03;100.00;100988.72;5422523;25;20008;-87
2024/04/17 04:13:09;;;;;;;1.50;1.40;;;;;;;4.98;100.00;101001.56;5432855;25;20668;-85
2024/04/17 04:15:34;;;;;;;1.10;1.10;;;;;;;4.65;100.00;100981.34;5414904;25;20009;-87
2024/04/17 04:18:00;;;;;;;1.10;1.10;;;;;;;4.74;100.00;100997.03;5422749;25;20829;-87
2024/04/17 04:20:25;;;;;;;1.35;1.23;;;;;;;4.46;100.00;100995.59;5418147;25;20017;-86
2024/04/17 04:22:51;;;;;;;1.15;1.15;;;;;;;3.78;100.00;101008.63;5424076;25;20218;-87
2024/04/17 04:25:16;;;;;;;1.00;1.00;;;;;;;2.47;97.83;100985.38;5427037;25;21168;-86
2024/04/17 04:27:42;;;;;;;1.75;1.30;;;;;;;2.29;100.00;100987.09;5422662;25;20015;-86
2024/04/17 04:30:07;;;;;;;1.40;1.30;;;;;;;0.52;90.99;101004.69;5420515;25;20013;-88
2024/04/17 04:32:33;;;;;;;1.33;1.27;;;;;;;1.33;100.00;100984.44;5418349;25;24232;-87
2024/04/17 04:34:58;;;;;;;169.15;10.07;;;;;;;2.54;100.00;100991.72;5438932;25;20010;-87
2024/04/17 04:37:25;;;;;;;1.05;1.05;;;;;;;3.69;100.00;101002.47;5421246;25;20653;-87
2024/04/17 04:39:51;;;;;;;1.30;1.20;;;;;;;4.07;100.00;100998.63;5440618;25;20005;-88
2024/04/17 04:42:17;;;;;;;1.15;1.10;;;;;;;4.18;100.00;101005.47;5428330;25;21838;-86
2024/04/17 04:44:42;;;;;;;1.10;1.08;;;;;;;4.20;100.00;100982.44;5431209;25;20692;-87
2024/04/17 04:47:07;;;;;;;1.27;1.25;;;;;;;4.28;100.00;100990.38;5429093;25;20075;-86
2024/04/17 04:49:33;;;;;;;1.30;1.30;;;;;;;4.18;100.00;101000.19;5434857;25;20013;-85
2024/04/17 04:51:58;;;;;;;1.52;1.42;;;;;;;4.20;100.00;101006.97;5416993;25;20017;-86
2024/04/17 04:54:24;;;;;;;2.58;1.23;;;;;;;4.03;100.00;101002.56;5428666;25;19998;-87
2024/04/17 04:56:52;;;;;;;1.73;1.20;;;;;;;3.73;100.00;100993.28;5417191;25;20048;-87
2024/04/17 04:59:18;;;;;;;3.30;1.85;;;;;;;3.94;100.00;101016.66;5417451;25;20124;-88
2024/04/17 05:01:43;;;;;;;1.00;1.00;;;;;;;3.11;100.00;101001.06;5419214;25;20632;-86
2024/04/17 05:04:08;;;;;;;1.13;1.13;;;;;;;2.65;100.00;101015.16;5406583;25;20139;-87
2024/04/17 05:06:34;;;;;;;1.20;1.20;;;;;;;1.55;95.52;100988.59;5453511;25;20006;-87
2024/04/17 05:09:00;;;;;;;1.48;1.38;;;;;;;0.48;100.00;100976.25;5441866;25;21098;-87
2024/04/17 05:11:25;;;;;;;1.00;1.00;;;;;;;-0.21;98.37;101020.47;5426202;25;20100;-87
2024/04/17 05:13:50;;;;;;;1.50;1.40;;;;;;;0.81;100.00;101011.81;5438518;25;20033;-88
2024/04/17 05:16:16;;;;;;;1999.90;379.10;;;;;;;2.10;100.00;101020.31;5412173;25;20010;-88
2024/04/17 05:18:41;;;;;;;1.10;1.10;;;;;;;3.37;100.00;101016.97;5419477;25;23017;-87
2024/04/17 05:21:07;;;;;;;3.25;1.60;;;;;;;3.80;100.00;101004.84;5412150;25;20529;-88
2024/04/17 05:23:32;;;;;;;1.60;1.50;;;;;;;3.95;100.00;100991.97;5409957;25;20024;-86
2024/04/17 05:25:57;;;;;;;1.90;1.33;;;;;;;4.25;100.00;101017.84;5428171;25;19998;-87
2024/04/17 05:28:23;;;;;;;3.22;1.85;;;;;;;4.36;100.00;101024.69;5425796;25;20169;-87
2024/04/17 05:30:56;;;;;;;5.60;1.30;;;;;;;4.29;100.00;101009.66;5421763;25;20025;-88
2024/04/17 05:33:21;;;;;;;1.30;1.20;;;;;;;4.07;100.00;101001.25;5417818;25;20002;-87
2024/04/17 05:35:47;;;;;;;1.40;1.30;;;;;;;3.73;100.00;100990.63;5441940;25;20002;-87
2024/04/17 05:38:12;;;;;;;1.50;1.42;;;;;;;3.66;100.00;101006.22;5432578;25;20018;-88
2024/04/17 05:40:38;;;;;;;1.30;1.30;;;;;;;3.92;100.00;101014.19;5429474;25;20030;-87
2024/04/17 05:43:03;;;;;;;1.17;1.17;;;;;;;3.12;100.00;101010.63;5421051;25;20021;-88
2024/04/17 05:45:28;;;;;;;1.75;1.30;;;;;;;2.95;100.00;101013.22;5432648;25;20021;-88
2024/04/17 05:47:54;;;;;;;1.20;1.20;;;;;;;2.36;100.00;101017.91;5433828;25;20929;-86
2024/04/17 05:50:19;;;;;;;1.40;1.40;;;;;;;1.22;100.00;101012.59;5424122;25;20006;-88
2024/04/17 05:52:45;;;;;;;1.40;1.35;;;;;;;-0.06;100.00;101024.47;5430453;25;20075;-88
2024/04/17 05:55:10;;;;;;;1.38;1.17;;;;;;;0.58;100.00;101008.53;5434148;25;20006;-87
2024/04/17 05:57:35;;;;;;;1.17;1.17;;;;;;;2.21;100.00;101019.31;5431789;25;19998;-87
2024/04/17 06:00:01;;;;;;;1.48;1.40;;;;;;;3.40;100.00;101014.06;5424223;25;20013;-88
2024/04/17 06:02:26;;;;;;;1.17;1.17;;;;;;;3.70;100.00;101012.00;5425710;25;21012;-88
2024/04/17 06:04:52;;;;;;;1.40;1.30;;;;;;;3.88;100.00;101020.72;5441930;25;20091;-89
2024/04/17 06:07:17;;;;;;;2.17;1.50;;;;;;;4.22;100.00;101017.34;5441499;25;20005;-87
2024/04/17 06:09:42;;;;;;;1.75;1.63;;;;;;;4.21;100.00;101007.78;5434653;25;20016;-88
2024/04/17 06:12:08;;;;;;;7.57;2.55;;;;;;;4.11;100.00;100989.44;5433635;25;20009;-89
2024/04/17 06:14:33;;;;;;;4.18;2.38;;;;;;;4.34;100.00;101010.00;5454585;25;20006;-87
2024/04/17 06:16:58;;;;;;;4.45;2.40;;;;;;;4.57;100.00;101011.13;5445089;25;20519;-88
2024/04/17 06:19:24;;;;;;;7.72;2.38;;;;;;;4.68;100.00;101013.47;5442334;25;21094;-89
2024/04/17 06:21:49;;;;;;;4.85;1.98;;;;;;;4.69;100.00;101020.41;5432660;25;20014;-89
2024/04/17 06:24:14;;;;;;;5.50;2.17;;;;;;;4.52;100.00;101013.41;5426442;25;20013;-87
2024/04/17 06:26:40;;;;;;;4.57;1.90;;;;;;;4.85;100.00;101017.00;5449716;25;21174;-90
2024/04/17 06:29:05;;;;;;;6.72;2.10;;;;;;;4.51;100.00;101012.56;5449399;25;20156;-88
2024/04/17 06:31:53;;;;;;;4.57;2.58;;;;;;;4.09;99.83;101025.66;5412360;25;20094;-89
2024/04/17 06:34:18;;;;;;;2.92;1.92;;;;;;;3.31;95.44;100996.53;5406348;25;21682;-87
2024/04/17 06:36:44;;;;;;;6.00;2.50;;;;;;;3.20;93.92;101004.63;5403232;25;21453;-87
2024/04/17 06:39:09;;;;;;;4.55;2.25;;;;;;;3.06;100.00;101011.22;5420812;25;20362;-88
2024/04/17 06:41:35;;;;;;;5.18;2.20;;;;;;;2.27;88.48;101000.38;5413908;25;20018;-87
2024/04/17 06:44:00;;;;;;;7.72;2.60;;;;;;;2.88;100.00;100999.03;5433820;25;19998;-88
2024/04/17 06:46:25;;;;;;;2.33;1.45;;;;;;;1.77;89.04;101013.72;5444714;25;20970;-87
2024/04/17 06:48:51;;;;;;;3.03;1.63;;;;;;;1.57;94.57;101001.59;5430410;25;20002;-87
2024/04/17 06:51:16;;;;;;;1.73;1.30;;;;;;;1.03;91.75;101010.75;5444983;25;20943;-88
2024/04/17 06:53:42;;;;;;;1.67;1.58;;;;;;;0.63;100.00;101013.41;5445411;25;19998;-89
2024/04/17 06:56:07;;;;;;;11.32;2.25;;;;;;;2.77;100.00;101003.47;5420316;25;20005;-87
2024/04/17 06:58:32;;;;;;;113.03;6.88;;;;;;;3.84;100.00;101015.91;5414858;25;21993;-87
2024/04/17 07:00:58;;;;;;;4.25;1.73;;;;;;;4.66;100.00;101018.06;5417109;25;20001;-88
2024/04/17 07:03:23;;;;;;;1.80;1.70;;;;;;;5.40;100.00;101008.59;5430927;25;20024;-87
2024/04/17 07:05:59;;;;;;;5.97;2.75;;;;;;;6.17;97.30;101012.59;5427831;25;20283;-88
2024/04/17 07:08:25;;;;;;;2.38;1.83;;;;;;;6.28;95.03;101006.13;5423333;25;20016;-89
2024/04/17 07:10:51;;;;;;;10.30;1.92;;;;;;;6.35;88.46;101011.59;5435329;25;20009;-90
2024/04/17 07:13:16;;;;;;;3.10;1.60;;;;;;;6.73;87.00;101018.72;5424875;25;20514;-87
2024/04/17 07:15:42;;;;;;;2.03;1.70;;;;;;;6.85;86.04;101013.06;5444213;25;20018;-88
2024/04/17 07:18:07;;;;;;;9.32;1.98;;;;;;;6.86;87.02;100991.72;5434435;25;20097;-88
2024/04/17 07:20:33;;;;;;;6.50;2.50;;;;;;;6.95;87.44;101011.88;5447328;25;20753;-88
2024/04/17 07:22:58;;;;;;;9.55;1.67;;;;;;;7.10;85.62;101004.00;5427688;25;20010;-88
2024/04/17 07:25:23;;;;;;;6.95;2.20;;;;;;;8.09;84.94;100997.00;5440985;25;20086;-88
2024/04/17 07:27:49;;;;;;;8.35;1.85;;;;;;;9.76;73.70;100989.03;5428676;25;20364;-89
2024/04/17 07:30:14;;;;;;;6.15;1.83;;;;;;;12.43;65.06;100983.41;5443880;25;20026;-89
2024/04/17 07:32:40;;;;;;;9.05;1.85;;;;;;;12.86;59.58;100987.38;5408485;25;20009;-88
2024/04/17 07:35:06;;;;;;;3.20;1.85;;;;;;;11.75;62.83;100993.47;5410165;25;20006;-90
2024/04/17 07:37:32;;;;;;;5.05;2.30;;;;;;;10.43;67.45;100993.06;5423410;25;20495;-90
2024/04/17 07:39:57;;;;;;;3.67;1.95;;;;;;;9.18;68.59;100998.88;5406033;25;20010;-88
2024/04/17 07:42:22;;;;;;;2.70;1.38;;;;;;;8.88;72.12;100994.66;5402262;25;20492;-89
2024/04/17 07:44:48;;;;;;;2.25;1.60;;;;;;;11.19;64.10;100990.28;5422939;25;20005;-87
2024/04/17 07:47:13;;;;;;;3.28;1.70;;;;;;;13.40;61.45;100980.75;5409512;25;20005;-87
2024/04/17 07:49:39;;;;;;;4.85;1.92;;;;;;;14.95;51.04;100968.16;5415782;25;20398;-90
2024/04/17 07:52:05;;;;;;;1.58;1.48;;;;;;;15.40;49.14;100967.72;5426911;25;20157;-89
2024/04/17 07:54:30;;;;;;;5.15;1.73;;;;;;;14.83;50.06;100943.16;5449079;25;20006;-93
2024/04/17 07:56:55;;;;;;;6.68;2.40;;;;;;;14.11;52.95;100989.22;5435984;25;20040;-88
2024/04/17 07:59:21;;;;;;;3.50;1.95;;;;;;;13.05;57.65;100972.28;5425107;25;20021;-90
2024/04/17 08:01:46;;;;;;;5.55;1.77;;;;;;;12.22;58.70;100994.28;5429233;25;19998;-89
2024/04/17 08:04:12;;;;;;;4.50;1.63;;;;;;;12.08;58.20;100987.34;5422128;25;20107;-89
2024/04/17 08:06:37;;;;;;;4.85;1.63;;;;;;;12.95;54.54;100975.41;5427908;25;20049;-88
2024/04/17 08:09:02;;;;;;;2.97;1.80;;;;;;;13.37;56.48;100994.53;5445973;25;20095;-88
2024/04/17 08:11:34;;;;;;;2.90;1.58;;;;;;;12.12;55.75;100954.69;5415811;25;20012;-90
2024/04/17 08:14:00;;;;;;;4.95;1.92;;;;;;;14.40;52.78;100982.34;5423061;25;20094;-90
2024/04/17 08:16:26;;;;;;;3.90;1.58;;;;;;;12.78;54.57;100977.75;5414149;25;20057;-88
2024/04/17 08:18:51;;;;;;;2.03;1.52;;;;;;;11.56;57.37;100986.28;5414943;25;20474;-90
2024/04/17 08:21:16;;;;;;;5.47;1.77;;;;;;;11.08;60.88;100999.69;5421583;25;20006;-90
2024/04/17 08:23:41;;;;;;;7.25;1.80;;;;;;;10.59;62.20;101000.69;5415754;25;20009;-88
2024/04/17 08:26:08;;;;;;;4.75;1.58;;;;;;;13.81;50.31;100990.91;5422041;25;20005;-87
2024/04/17 08:28:33;;;;;;;1.50;1.30;;;;;;;11.78;54.33;101001.06;5430504;25;20041;-89
2024/04/17 08:30:59;;;;;;;1.17;1.08;;;;;;;9.94;61.83;101001.88;5439106;25;20804;-88
2024/04/17 08:33:25;;;;;;;1.95;1.23;;;;;;;9.29;64.19;101008.19;5430066;25;20002;-88
2024/04/17 08:35:50;;;;;;;3.63;1.60;;;;;;;9.12;64.53;100986.38;5414450;25;20001;-89
2024/04/17 08:38:15;;;;;;;0.98;0.98;;;;;;;8.88;65.73;101006.09;5421858;25;20092;-88
2024/04/17 08:40:41;;;;;;;1.65;1.40;;;;;;;13.10;55.48;100996.50;5413837;25;20042;-88
2024/04/17 08:43:06;;;;;;;3.03;1.30;;;;;;;16.58;45.78;100985.53;5415235;25;20610;-88
2024/04/17 08:45:35;;;;;;;1.52;1.42;;;;;;;17.69;40.72;100988.75;5417846;25;20232;-89
2024/04/17 08:48:02;;;;;;;1.40;1.30;;;;;;;18.61;39.32;100981.00;5427496;25;20001;-88
2024/04/17 08:50:31;;;;;;;1.73;1.48;;;;;;;19.28;36.72;100979.88;5432968;25;20010;-89
2024/04/17 08:53:05;;;;;;;3.47;1.52;;;;;;;18.49;38.21;100987.56;5429871;25;20099;-89
2024/04/17 08:55:31;;;;;;;2.90;1.70;;;;;;;18.22;39.82;100996.34;5412394;25;20032;-91
2024/04/17 08:57:57;;;;;;;2.83;1.60;;;;;;;14.41;47.52;101009.94;5421035;25;20964;-90
2024/04/17 09:00:24;;;;;;;3.63;1.92;;;;;;;12.15;56.11;101026.31;5430231;25;20073;-89
2024/04/17 09:02:53;;;;;;;4.05;2.55;;;;;;;10.66;61.76;101022.84;5420580;25;20054;-87
2024/04/17 09:05:19;;;;;;;4.28;2.38;;;;;;;10.24;67.29;101022.97;5419463;25;20014;-87
2024/04/17 09:07:48;;;;;;;3.80;1.70;;;;;;;9.69;69.78;101027.19;5421810;25;20005;-88
2024/04/17 09:10:14;;;;;;;2.55;1.35;;;;;;;9.29;70.03;101026.78;5424599;25;20276;-88
2024/04/17 09:12:44;;;;;;;2.58;1.30;;;;;;;8.99;71.90;101032.16;5412973;25;20002;-87
2024/04/17 09:15:12;;;;;;;1.63;1.27;;;;;;;9.20;72.52;101001.34;5425580;25;20001;-88
2024/04/17 09:17:37;;;;;;;3.97;1.50;;;;;;;10.40;67.10;101018.19;5413850;25;20014;-88
2024/04/17 09:20:03;;;;;;;3.92;1.30;;;;;;;10.37;67.80;101020.44;5436282;25;20001;-88
2024/04/17 09:22:29;;;;;;;1.17;1.10;;;;;;;10.85;64.18;101010.66;5434531;25;20066;-88
2024/04/17 09:24:55;;;;;;;1.48;1.23;;;;;;;11.58;60.56;101005.56;5441894;25;20191;-88
2024/04/17 09:27:20;;;;;;;2.47;1.27;;;;;;;11.70;59.19;100995.09;5433960;25;20703;-88
2024/04/17 09:29:46;;;;;;;1.77;1.30;;;;;;;13.39;56.97;101000.50;5431443;25;19997;-87
2024/04/17 09:32:15;;;;;;;1.95;1.30;;;;;;;14.74;47.09;100993.53;5429274;25;20759;-87
2024/04/17 09:34:40;;;;;;;1.05;1.05;;;;;;;12.65;54.55;100996.47;5424884;25;20010;-88
2024/04/17 09:37:10;;;;;;;1.75;1.40;;;;;;;12.34;60.59;100995.31;5404693;25;20010;-86
2024/04/17 09:39:35;;;;;;;1.30;1.20;;;;;;;12.33;59.35;101001.66;5402359;25;20943;-87
2024/04/17 09:42:05;;;;;;;1.55;1.20;;;;;;;12.15;57.50;100998.81;5419829;25;20012;-88
2024/04/17 09:44:36;;;;;;;1.13;1.08;;;;;;;12.57;56.14;100991.34;5416535;25;20009;-87
2024/04/17 09:47:07;;;;;;;1.17;0.90;;;;;;;13.02;57.67;100977.00;5425225;25;20271;-86
2024/04/17 09:49:32;;;;;;;2.53;1.15;;;;;;;12.59;56.58;100987.44;5422699;25;20016;-88
2024/04/17 09:52:01;;;;;;;1.42;1.33;;;;;;;12.90;54.92;100985.91;5425083;25;19994;-86
2024/04/17 09:54:28;;;;;;;1.90;1.23;;;;;;;13.09;53.10;100963.59;5431438;25;20032;-88
2024/04/17 09:56:54;;;;;;;1.40;1.27;;;;;;;12.57;54.26;100975.34;5450904;25;20082;-88
2024/04/17 09:59:21;;;;;;;1.25;1.15;;;;;;;11.35;53.26;100978.44;5432081;25;20049;-88
2024/04/17 10:01:47;;;;;;;1.63;1.20;;;;;;;11.46;54.92;100983.16;5446890;25;22708;-87
2024/04/17 10:04:14;;;;;;;1.38;1.27;;;;;;;11.61;57.53;100970.50;5438880;25;19998;-87
2024/04/17 10:06:43;;;;;;;1.55;1.27;;;;;;;13.29;53.94;100969.72;5427792;26;20005;-86
2024/04/17 10:09:15;;;;;;;1.75;1.38;;;;;;;14.56;47.71;100972.94;5428271;25;20227;-87
2024/04/17 10:11:41;;;;;;;1.67;1.20;;;;;;;15.24;46.86;100979.91;5418149;25;20009;-86
2024/04/17 10:14:12;;;;;;;1.45;1.20;;;;;;;14.01;46.10;100982.75;5409233;25;20013;-86
2024/04/17 10:16:39;;;;;;;1.92;1.08;;;;;;;15.16;43.38;100974.88;5439845;25;21272;-87
2024/04/17 10:19:05;;;;;;;1.38;1.27;;;;;;;15.89;41.90;100971.91;5418898;25;20802;-87
2024/04/17 10:21:35;;;;;;;1.10;1.10;;;;;;;14.98;44.23;100983.78;5426415;25;20005;-87
2024/04/17 10:24:08;;;;;;;1.40;1.30;;;;;;;15.37;46.20;100978.91;5425462;25;20046;-86
2024/04/17 10:26:50;;;;;;;0.90;0.90;;;;;;;15.03;45.15;100973.19;5420198;25;20013;-87
2024/04/17 10:29:24;;;;;;;1.02;1.02;;;;;;;15.69;41.66;100982.97;5431923;25;20010;-87
2024/04/17 10:32:02;;;;;;;7.80;1.55;;;;;;;14.18;44.62;100988.34;5410378;25;20099;-87
2024/04/17 10:34:48;;;;;;;2.08;1.30;;;;;;;13.96;50.26;100988.75;5423245;25;20021;-89
2024/04/17 10:37:14;;;;;;;1.10;1.00;;;;;;;13.65;47.83;100983.44;5431771;25;20055;-88
2024/04/17 10:39:41;;;;;;;1.38;1.23;;;;;;;12.96;47.32;100993.91;5430283;25;20002;-86
2024/04/17 10:42:08;;;;;;;1.65;1.10;;;;;;;12.63;52.08;100974.50;5430998;25;20055;-86
2024/04/17 10:44:44;;;;;;;1.33;1.23;;;;;;;12.25;54.89;100988.56;5433580;25;20493;-87
2024/04/17 10:47:19;;;;;;;1.38;1.27;;;;;;;11.86;53.22;100981.41;5406977;25;21471;-86
2024/04/17 10:50:02;;;;;;;1.67;1.20;;;;;;;12.25;55.98;100985.06;5407155;25;20153;-87
2024/04/17 10:52:52;;;;;;;1.40;1.30;;;;;;;11.94;55.05;100980.38;5419753;25;20026;-87
2024/04/17 10:56:17;;;;;;;1.48;1.20;;;;;;;11.24;52.76;100980.69;5421883;25;20006;-87
2024/04/17 10:59:29;;;;;;;6.82;1.35;;;;;;;10.81;55.78;100964.16;5417152;25;20014;-87
2024/04/17 11:20:12;;;;;;;1.25;1.20;;;;;;;11.03;53.28;100981.66;5417406;25;20850;-88
2024/04/17 11:22:39;;;;;;;2.35;1.45;;;;;;;10.69;58.82;100969.25;5411919;25;20001;-86
2024/04/17 11:25:04;;;;;;;1.08;1.08;;;;;;;10.58;55.55;100976.94;5426930;25;20164;-88
2024/04/17 11:27:30;;;;;;;2.35;1.40;;;;;;;10.43;57.31;101004.50;5431682;25;20102;-88
2024/04/17 11:30:01;;;;;;;0.98;0.98;;;;;;;9.54;62.38;101016.63;5428043;25;20010;-87
2024/04/17 11:32:28;;;;;;;1.20;1.10;;;;;;;8.90;67.42;101033.28;5415559;25;20021;-87
2024/04/17 11:34:53;;;;;;;1.42;1.17;;;;;;;8.39;70.36;101033.19;5423558;25;19998;-86
2024/04/17 11:37:19;;;;;;;1.23;1.13;;;;;;;7.97;71.77;101019.63;5432228;25;20013;-88
2024/04/17 11:39:44;;;;;;;1.85;1.50;;;;;;;7.70;74.08;101029.78;5462856;25;20016;-87
2024/04/17 11:42:11;;;;;;;4.45;1.30;;;;;;;7.62;74.65;101053.66;5431098;25;20009;-88
2024/04/17 11:44:38;;;;;;;1.50;1.40;;;;;;;7.37;75.88;101032.63;5431225;25;20012;-88